Time;durP1;ratioP1;P1;durP2;ratioP2;P2;SDS_P1;SDS_P2;PMS_P1;PMS_P2;Temp;Humidity;BMP_temperature;BMP_pressure;BME280_temperature;BME280_humidity;BME280_pressure;Samples;Min_cycle;Max_cycle;Signal;HPM_P1;HPM_P2
2023/03/27 00:02:19;;;;;;;8.80;1.77;;;4.60;99.90;;;;;;5032784;28;20205;-52
2023/03/27 00:04:45;;;;;;;7.82;1.55;;;4.60;99.90;;;;;;5032542;28;20665;-53
2023/03/27 00:07:11;;;;;;;11.60;1.88;;;;;;;;;;5032432;28;20205;-49
2023/03/27 00:09:38;;;;;;;10.45;2.45;;;4.60;99.90;;;;;;5032389;28;20584;-53
2023/03/27 00:12:04;;;;;;;9.88;2.53;;;4.50;99.90;;;;;;5032581;28;20635;-49
2023/03/27 00:14:29;;;;;;;7.65;1.80;;;4.50;99.90;;;;;;5032769;28;20167;-45
2023/03/27 00:16:58;;;;;;;9.95;2.30;;;4.50;99.90;;;;;;5032750;28;20175;-48
2023/03/27 00:19:24;;;;;;;8.02;2.30;;;;;;;;;;5032428;28;20191;-46
2023/03/27 00:21:50;;;;;;;8.35;1.55;;;4.60;99.90;;;;;;5032920;28;20222;-51
2023/03/27 00:24:16;;;;;;;3.22;1.13;;;4.40;99.90;;;;;;5032581;28;20175;-49
2023/03/27 00:26:42;;;;;;;14.15;2.08;;;4.50;99.90;;;;;;5032079;28;20531;-49
2023/03/27 00:29:07;;;;;;;7.25;2.15;;;4.40;99.90;;;;;;5032179;28;20207;-47
2023/03/27 00:31:33;;;;;;;6.28;1.90;;;4.40;99.90;;;;;;5032481;28;20174;-46
2023/03/27 00:34:00;;;;;;;8.77;2.70;;;;;;;;;;5032157;28;20649;-44
2023/03/27 00:36:26;;;;;;;12.25;2.05;;;4.40;99.90;;;;;;5032366;28;20175;-44
2023/03/27 00:38:52;;;;;;;7.22;1.50;;;4.40;99.90;;;;;;5032167;28;20179;-45
2023/03/27 00:41:18;;;;;;;10.38;2.20;;;4.40;99.90;;;;;;5031866;28;20159;-50
2023/03/27 00:43:44;;;;;;;6.65;2.00;;;4.30;99.90;;;;;;5032168;28;20171;-51
2023/03/27 00:46:34;;;;;;;15.25;2.97;;;4.30;99.90;;;;;;5032241;28;20164;-51
2023/03/27 00:49:04;;;;;;;10.65;2.03;;;4.30;99.90;;;;;;5032071;28;20167;-49
2023/03/27 00:51:30;;;;;;;5.22;2.13;;;4.30;99.90;;;;;;5031826;28;20193;-45
2023/03/27 00:53:56;;;;;;;7.18;1.60;;;4.20;99.90;;;;;;5032089;28;20258;-51
2023/03/27 00:56:23;;;;;;;7.38;2.28;;;4.20;99.90;;;;;;5032042;28;20589;-46
2023/03/27 00:58:54;;;;;;;6.15;1.65;;;4.20;99.90;;;;;;5032150;28;20529;-46
2023/03/27 01:01:23;;;;;;;5.75;1.73;;;4.20;99.90;;;;;;5031982;28;20167;-45
2023/03/27 01:03:50;;;;;;;9.23;2.03;;;4.20;99.90;;;;;;5031919;28;20202;-50
2023/03/27 01:06:16;;;;;;;6.65;2.35;;;4.20;99.90;;;;;;5030297;28;20171;-52
2023/03/27 01:08:43;;;;;;;11.90;2.15;;;4.20;99.90;;;;;;5031160;28;20302;-51
2023/03/27 01:11:31;;;;;;;8.48;1.77;;;4.10;99.90;;;;;;5031464;28;20233;-44
2023/03/27 01:14:22;;;;;;;19.65;2.03;;;4.10;99.90;;;;;;5031490;28;20168;-45
2023/03/27 01:16:48;;;;;;;11.63;2.20;;;4.10;99.90;;;;;;5030095;28;20577;-44
2023/03/27 01:19:34;;;;;;;3.85;1.35;;;4.10;99.90;;;;;;5031384;28;20159;-44
2023/03/27 01:22:21;;;;;;;6.63;1.98;;;4.00;99.90;;;;;;5031812;28;20177;-44
2023/03/27 01:25:19;;;;;;;5.85;1.33;;;4.10;99.90;;;;;;5031237;28;20636;-45
2023/03/27 01:28:18;;;;;;;12.10;2.75;;;4.10;99.90;;;;;;5031465;28;20171;-46
2023/03/27 01:30:55;;;;;;;4.88;1.35;;;4.10;99.90;;;;;;5031059;28;20203;-44
2023/03/27 01:33:31;;;;;;;9.10;1.98;;;4.00;99.90;;;;;;5031647;28;20187;-44
2023/03/27 01:36:19;;;;;;;4.60;1.27;;;4.10;99.90;;;;;;5030643;28;20618;-44
2023/03/27 01:39:24;;;;;;;5.75;1.75;;;4.10;99.90;;;;;;5029808;28;20249;-45
2023/03/27 01:41:57;;;;;;;3.00;1.15;;;4.00;99.90;;;;;;5031391;28;20720;-44
2023/03/27 01:44:48;;;;;;;14.63;2.17;;;4.10;99.90;;;;;;5031400;28;20171;-45
2023/03/27 01:47:40;;;;;;;4.07;1.65;;;4.00;99.90;;;;;;5031280;28;20186;-45
2023/03/27 01:50:10;;;;;;;10.80;2.10;;;3.90;99.90;;;;;;5031013;28;20195;-43
2023/03/27 01:52:40;;;;;;;5.15;1.73;;;3.90;99.90;;;;;;5031241;28;20217;-44
2023/03/27 01:55:11;;;;;;;4.45;1.50;;;3.90;99.90;;;;;;5034200;28;20194;-44
2023/03/27 01:57:48;;;;;;;9.63;1.80;;;3.90;99.90;;;;;;5035269;28;20170;-44
2023/03/27 02:00:16;;;;;;;9.35;2.25;;;3.80;99.90;;;;;;5034745;28;20658;-44
2023/03/27 02:03:02;;;;;;;6.90;2.00;;;3.80;99.90;;;;;;5034551;28;20262;-44
2023/03/27 02:05:55;;;;;;;5.10;1.25;;;3.80;99.90;;;;;;5034896;28;20201;-44
2023/03/27 02:08:55;;;;;;;5.60;1.80;;;3.70;99.90;;;;;;5035347;28;20572;-46
2023/03/27 02:11:28;;;;;;;4.57;1.38;;;3.70;99.90;;;;;;5035250;28;20540;-44
2023/03/27 02:14:03;;;;;;;6.22;1.70;;;3.80;99.90;;;;;;5035506;28;20627;-44
2023/03/27 02:16:32;;;;;;;15.13;2.20;;;3.70;99.90;;;;;;5035285;28;20654;-45
2023/03/27 02:19:03;;;;;;;10.73;1.85;;;3.70;99.90;;;;;;5035149;28;20167;-50
2023/03/27 02:21:30;;;;;;;8.02;1.52;;;3.70;99.90;;;;;;5035161;28;20167;-50
2023/03/27 02:23:56;;;;;;;9.88;1.27;;;3.80;99.90;;;;;;5035116;28;20183;-46
2023/03/27 02:26:22;;;;;;;5.93;2.15;;;3.80;99.90;;;;;;5035346;28;20171;-44
2023/03/27 02:29:04;;;;;;;7.88;1.50;;;3.70;99.90;;;;;;5035237;28;20175;-47
2023/03/27 02:31:55;;;;;;;7.25;1.77;;;3.70;99.90;;;;;;5034633;28;20642;-47
2023/03/27 02:34:20;;;;;;;8.10;2.20;;;3.70;99.90;;;;;;5035547;28;20525;-54
2023/03/27 02:37:08;;;;;;;11.65;2.35;;;3.60;99.90;;;;;;5034861;28;20171;-54
2023/03/27 02:39:52;;;;;;;8.23;1.88;;;3.60;99.90;;;;;;5034466;28;20714;-52
2023/03/27 02:42:39;;;;;;;5.25;1.70;;;3.60;99.90;;;;;;5035026;28;20171;-51
2023/03/27 02:45:15;;;;;;;6.20;2.15;;;3.60;99.90;;;;;;5034680;28;20174;-50
2023/03/27 02:47:50;;;;;;;8.35;2.10;;;3.60;99.90;;;;;;5034681;28;20170;-54
2023/03/27 02:50:27;;;;;;;3.95;1.63;;;3.60;99.90;;;;;;5034797;28;20295;-47
2023/03/27 02:53:00;;;;;;;9.73;2.03;;;3.60;99.90;;;;;;5034788;28;20221;-52
2023/03/27 02:55:32;;;;;;;7.40;2.58;;;3.60;99.90;;;;;;5034559;28;20168;-54
2023/03/27 02:58:18;;;;;;;12.10;2.17;;;3.50;99.90;;;;;;5034514;28;20167;-54
2023/03/27 03:00:49;;;;;;;9.48;1.90;;;3.50;99.90;;;;;;5034137;28;20175;-54
2023/03/27 03:03:31;;;;;;;10.25;1.92;;;3.50;99.90;;;;;;5034207;28;20649;-54
2023/03/27 03:05:57;;;;;;;7.20;1.73;;;3.50;99.90;;;;;;5034342;28;20179;-53
2023/03/27 03:08:29;;;;;;;6.78;1.40;;;3.50;99.90;;;;;;5034621;28;20214;-54
2023/03/27 03:11:00;;;;;;;9.27;2.03;;;3.50;99.90;;;;;;5034420;28;20210;-50
2023/03/27 03:13:26;;;;;;;5.03;1.70;;;;;;;;;;5034345;28;20719;-47
2023/03/27 03:15:51;;;;;;;6.60;1.77;;;3.40;99.90;;;;;;5034625;28;20259;-52
2023/03/27 03:18:17;;;;;;;8.07;2.30;;;3.40;99.90;;;;;;5034060;28;20537;-54
2023/03/27 03:20:44;;;;;;;8.32;1.88;;;3.40;99.90;;;;;;5034071;28;20577;-53
2023/03/27 03:23:10;;;;;;;8.43;2.05;;;3.40;99.90;;;;;;5034037;28;20167;-53
2023/03/27 03:25:35;;;;;;;7.82;1.88;;;3.40;99.90;;;;;;5033920;28;20173;-54
2023/03/27 03:28:01;;;;;;;6.07;1.58;;;3.40;99.90;;;;;;5033895;28;20250;-54
2023/03/27 03:30:29;;;;;;;3.75;1.73;;;3.40;99.90;;;;;;5033580;28;20242;-54
2023/03/27 03:32:55;;;;;;;6.95;1.58;;;;;;;;;;5033753;28;20261;-51
2023/03/27 03:35:22;;;;;;;10.05;2.15;;;3.40;99.90;;;;;;5034363;28;20198;-54
2023/03/27 03:37:50;;;;;;;8.70;1.98;;;3.40;99.90;;;;;;5034016;28;20160;-54
2023/03/27 03:40:16;;;;;;;5.25;1.70;;;3.30;99.90;;;;;;5033440;28;20509;-53
2023/03/27 03:42:50;;;;;;;6.20;1.77;;;3.30;99.90;;;;;;5033785;28;20198;-54
2023/03/27 03:45:17;;;;;;;10.20;1.88;;;3.30;99.90;;;;;;5033560;28;20159;-53
2023/03/27 03:47:43;;;;;;;7.00;1.55;;;3.30;99.90;;;;;;5033505;28;20202;-54
2023/03/27 03:50:10;;;;;;;11.93;2.00;;;3.30;99.90;;;;;;5033475;28;20207;-54
2023/03/27 03:52:36;;;;;;;4.50;1.92;;;;;;;;;;5033732;28;20256;-54
2023/03/27 03:55:03;;;;;;;8.05;1.67;;;3.30;99.90;;;;;;5033470;28;20252;-54
2023/03/27 03:57:29;;;;;;;9.68;1.67;;;3.30;99.90;;;;;;5033728;28;20593;-54
2023/03/27 03:59:57;;;;;;;4.22;2.17;;;3.20;99.90;;;;;;5031817;28;20174;-53
2023/03/27 04:02:27;;;;;;;8.23;2.10;;;;;;;;;;5033575;28;20177;-54
2023/03/27 04:04:57;;;;;;;10.82;2.45;;;3.20;99.90;;;;;;5033914;28;20176;-52
2023/03/27 04:07:24;;;;;;;4.75;1.70;;;2.90;99.90;;;;;;5033494;28;20251;-54
2023/03/27 04:09:50;;;;;;;8.70;1.95;;;2.90;99.90;;;;;;5033268;28;20222;-54
2023/03/27 04:12:16;;;;;;;5.22;1.90;;;2.90;99.90;;;;;;5033305;28;20170;-52
2023/03/27 04:14:43;;;;;;;3.38;1.50;;;2.90;99.90;;;;;;5033044;28;20670;-55
2023/03/27 04:17:08;;;;;;;4.60;1.70;;;2.80;99.90;;;;;;5032685;28;20194;-53
2023/03/27 04:19:34;;;;;;;11.57;1.88;;;2.70;99.90;;;;;;5032920;28;20686;-54
2023/03/27 04:22:03;;;;;;;8.57;1.80;;;2.80;99.90;;;;;;5032992;28;20631;-54
2023/03/27 04:24:32;;;;;;;8.68;2.05;;;2.80;99.90;;;;;;5033045;28;20175;-53
2023/03/27 04:27:00;;;;;;;13.68;2.20;;;2.90;99.90;;;;;;5032875;28;20168;-54
2023/03/27 04:29:29;;;;;;;11.00;2.35;;;2.80;99.90;;;;;;5032242;28;20199;-54
2023/03/27 04:31:56;;;;;;;9.10;2.45;;;2.80;99.90;;;;;;5031967;28;20171;-52
2023/03/27 04:34:22;;;;;;;5.43;2.03;;;2.90;99.90;;;;;;5032728;28;20171;-53
2023/03/27 04:36:49;;;;;;;12.07;2.65;;;2.90;99.90;;;;;;5032099;28;20171;-54
2023/03/27 04:39:16;;;;;;;8.60;2.10;;;2.80;99.90;;;;;;5032369;28;20179;-53
2023/03/27 04:41:47;;;;;;;10.75;2.85;;;2.90;99.90;;;;;;5032329;28;20168;-52
2023/03/27 04:44:13;;;;;;;7.45;2.67;;;2.90;99.90;;;;;;5031937;28;20657;-54
2023/03/27 04:46:40;;;;;;;13.07;2.50;;;2.90;99.90;;;;;;5031856;28;20186;-54
2023/03/27 04:49:05;;;;;;;12.30;3.75;;;2.90;99.90;;;;;;5031753;28;20186;-54
2023/03/27 04:51:31;;;;;;;8.60;2.10;;;;;;;;;;5031723;28;20172;-51
2023/03/27 04:53:57;;;;;;;7.95;2.90;;;2.90;99.90;;;;;;5031761;28;20174;-44
2023/03/27 04:56:23;;;;;;;13.40;2.65;;;;;;;;;;5032272;28;20245;-48
2023/03/27 04:58:49;;;;;;;8.30;2.75;;;;;;;;;;5032031;28;20535;-53
2023/03/27 05:01:16;;;;;;;5.65;2.63;;;3.00;99.90;;;;;;5031803;28;20168;-48
2023/03/27 05:03:41;;;;;;;8.32;2.33;;;3.00;99.90;;;;;;5031838;28;20207;-54
2023/03/27 05:06:08;;;;;;;11.48;2.17;;;;;;;;;;5031572;28;20194;-55
2023/03/27 05:08:34;;;;;;;14.23;3.88;;;;;;;;;;5031440;28;20632;-55
2023/03/27 05:11:01;;;;;;;9.02;2.70;;;;;;;;;;5029846;28;20705;-45
2023/03/27 05:13:27;;;;;;;9.20;2.30;;;3.20;99.90;;;;;;5031711;28;20179;-44
2023/03/27 05:15:53;;;;;;;7.28;1.80;;;3.30;99.90;;;;;;5031704;28;20856;-44
2023/03/27 05:18:19;;;;;;;8.38;2.10;;;3.30;99.90;;;;;;5031752;28;20250;-44
2023/03/27 05:20:48;;;;;;;4.85;2.08;;;3.30;99.90;;;;;;5031657;28;20210;-46
2023/03/27 05:23:13;;;;;;;8.18;2.45;;;3.30;99.90;;;;;;5031577;28;20179;-46
2023/03/27 05:25:39;;;;;;;8.95;3.17;;;3.30;99.90;;;;;;5031302;28;20171;-45
2023/03/27 05:28:04;;;;;;;9.25;2.92;;;3.30;99.90;;;;;;5030625;28;20697;-45
2023/03/27 05:30:30;;;;;;;10.20;2.10;;;3.40;99.90;;;;;;5030655;28;20207;-44
2023/03/27 05:32:57;;;;;;;8.98;2.67;;;;;;;;;;5031499;28;20168;-44
2023/03/27 05:35:24;;;;;;;12.23;2.50;;;3.40;99.90;;;;;;5031309;28;20179;-46
2023/03/27 05:37:52;;;;;;;21.60;2.47;;;3.50;99.90;;;;;;5031284;28;20728;-44
2023/03/27 05:40:21;;;;;;;4.18;1.70;;;3.60;99.90;;;;;;5031270;28;20194;-45
2023/03/27 05:42:47;;;;;;;5.18;1.98;;;3.70;99.90;;;;;;5031306;28;20293;-44
2023/03/27 05:45:14;;;;;;;4.55;1.80;;;;;;;;;;5031419;28;21223;-44
2023/03/27 05:47:48;;;;;;;5.70;2.08;;;3.70;99.90;;;;;;5031160;28;20171;-44
2023/03/27 05:50:15;;;;;;;4.63;1.90;;;3.80;99.90;;;;;;5030953;28;20289;-44
2023/03/27 05:52:41;;;;;;;8.32;2.00;;;3.80;99.90;;;;;;5031081;28;20718;-44
2023/03/27 05:55:08;;;;;;;8.00;1.88;;;3.90;99.90;;;;;;5031242;28;20635;-44
2023/03/27 05:57:40;;;;;;;7.35;2.10;;;3.90;99.90;;;;;;5030847;28;20635;-45
2023/03/27 06:00:10;;;;;;;7.35;2.33;;;3.90;99.90;;;;;;5030705;28;20186;-44
2023/03/27 06:02:37;;;;;;;10.75;3.05;;;3.90;99.90;;;;;;5031193;28;20167;-44
2023/03/27 06:05:05;;;;;;;2.75;1.63;;;3.90;99.90;;;;;;5030476;28;20175;-44
2023/03/27 06:07:30;;;;;;;3.85;1.85;;;4.00;99.90;;;;;;5030572;28;20174;-45
2023/03/27 06:09:56;;;;;;;7.93;1.65;;;4.00;99.90;;;;;;5031046;28;20234;-44
2023/03/27 06:12:22;;;;;;;6.47;1.83;;;;;;;;;;5031215;28;20175;-44
2023/03/27 06:14:48;;;;;;;4.53;1.50;;;4.00;99.90;;;;;;5031230;28;20221;-45
2023/03/27 06:17:14;;;;;;;4.63;1.80;;;;;;;;;;5030798;28;20560;-44
2023/03/27 06:19:41;;;;;;;6.57;1.83;;;;;;;;;;5030814;28;20647;-47
2023/03/27 06:22:06;;;;;;;4.60;1.42;;;4.20;99.90;;;;;;5030882;28;20170;-44
2023/03/27 06:24:32;;;;;;;5.22;1.50;;;4.30;99.90;;;;;;5030770;28;20533;-44
2023/03/27 06:26:58;;;;;;;5.72;2.00;;;4.20;99.90;;;;;;5030467;28;20187;-45
2023/03/27 06:29:27;;;;;;;5.40;1.42;;;4.20;99.90;;;;;;5030353;28;20208;-44
2023/03/27 06:31:56;;;;;;;3.85;1.55;;;;;;;;;;5030423;28;20639;-44
2023/03/27 06:34:22;;;;;;;5.03;1.60;;;4.30;99.90;;;;;;5031071;28;20255;-44
2023/03/27 06:36:48;;;;;;;2.13;1.63;;;;;;;;;;5030615;28;20251;-44
2023/03/27 06:39:14;;;;;;;5.53;1.67;;;4.30;99.90;;;;;;5030816;28;20179;-44
2023/03/27 06:41:40;;;;;;;3.35;1.88;;;4.40;99.90;;;;;;5034237;28;20175;-44
2023/03/27 06:44:06;;;;;;;9.20;2.17;;;4.60;99.90;;;;;;5033026;28;20179;-44
2023/03/27 06:46:32;;;;;;;4.05;1.73;;;4.70;99.90;;;;;;5034513;28;20167;-53
2023/03/27 06:48:57;;;;;;;6.13;1.70;;;4.80;99.90;;;;;;5034465;28;20167;-47
2023/03/27 06:51:25;;;;;;;2.67;1.92;;;;;;;;;;5034180;28;20213;-44
2023/03/27 06:53:52;;;;;;;4.68;2.20;;;4.90;99.90;;;;;;5034630;28;20171;-44
2023/03/27 06:56:18;;;;;;;8.32;2.92;;;5.00;99.90;;;;;;5034304;28;20537;-45
2023/03/27 06:58:44;;;;;;;5.93;2.40;;;5.10;99.90;;;;;;5033336;28;20655;-44
2023/03/27 07:01:10;;;;;;;3.05;1.63;;;5.10;99.90;;;;;;5031476;28;20194;-44
2023/03/27 07:03:37;;;;;;;4.00;1.70;;;;;;;;;;5032948;28;20643;-44
2023/03/27 07:06:03;;;;;;;5.75;2.25;;;5.20;99.90;;;;;;5031963;28;20639;-45
2023/03/27 07:08:29;;;;;;;2.65;1.50;;;5.20;99.90;;;;;;5032418;28;20277;-44
2023/03/27 07:10:55;;;;;;;3.47;1.77;;;5.30;99.90;;;;;;5032336;28;20231;-44
2023/03/27 07:13:21;;;;;;;6.15;2.20;;;;;;;;;;5032693;28;20167;-44
2023/03/27 07:15:46;;;;;;;4.28;2.15;;;5.50;99.90;;;;;;5032346;28;20309;-45
2023/03/27 07:18:14;;;;;;;6.88;2.72;;;5.60;99.90;;;;;;5032079;28;20261;-47
2023/03/27 07:20:40;;;;;;;5.15;2.20;;;5.60;99.90;;;;;;5032259;28;20663;-44
2023/03/27 07:23:05;;;;;;;5.50;2.30;;;5.60;99.90;;;;;;5032220;28;20186;-44
2023/03/27 07:25:36;;;;;;;4.20;1.20;;;5.70;99.90;;;;;;5032074;28;20168;-44
2023/03/27 07:28:04;;;;;;;4.72;2.00;;;;;;;;;;5032301;28;20186;-44
2023/03/27 07:30:30;;;;;;;2.78;1.45;;;5.80;99.90;;;;;;5031902;28;20225;-46
2023/03/27 07:32:57;;;;;;;4.20;1.75;;;;;;;;;;5032173;28;20642;-43
2023/03/27 07:35:26;;;;;;;4.25;1.50;;;5.90;99.90;;;;;;5032469;28;20221;-44
2023/03/27 07:37:54;;;;;;;6.40;1.67;;;5.90;99.90;;;;;;5032390;28;20170;-45
2023/03/27 07:40:21;;;;;;;4.68;1.55;;;6.00;99.90;;;;;;5032542;28;20259;-44
2023/03/27 07:42:48;;;;;;;1.20;1.10;;;6.00;99.90;;;;;;5032261;28;20171;-44
2023/03/27 07:45:15;;;;;;;5.38;1.58;;;6.10;99.90;;;;;;5031840;28;20183;-44
2023/03/27 07:47:42;;;;;;;6.53;1.60;;;6.10;99.90;;;;;;5031713;28;20164;-44
2023/03/27 07:50:10;;;;;;;2.67;1.70;;;6.30;99.90;;;;;;5031537;28;20670;-44
2023/03/27 07:52:36;;;;;;;4.32;2.10;;;6.50;99.90;;;;;;5030906;28;20175;-44
2023/03/27 07:55:03;;;;;;;2.65;1.58;;;;;;;;;;5031658;28;20246;-43
2023/03/27 07:57:28;;;;;;;7.55;1.80;;;6.50;99.90;;;;;;5031403;28;20168;-44
2023/03/27 07:59:56;;;;;;;6.55;1.73;;;6.40;99.90;;;;;;5031558;28;20178;-43
2023/03/27 08:02:23;;;;;;;2.08;1.33;;;6.40;99.90;;;;;;5032326;28;20167;-44
2023/03/27 08:04:50;;;;;;;3.20;1.50;;;;;;;;;;5031783;28;20665;-43
2023/03/27 08:07:16;;;;;;;8.32;1.90;;;6.30;99.90;;;;;;5031367;28;20701;-44
2023/03/27 08:09:42;;;;;;;4.53;1.70;;;6.60;99.90;;;;;;5031355;28;20227;-44
2023/03/27 08:12:08;;;;;;;5.93;1.60;;;;;;;;;;5031277;28;20220;-45
2023/03/27 08:14:34;;;;;;;8.55;1.88;;;;;;;;;;5031293;28;20175;-44
2023/03/27 08:17:00;;;;;;;3.40;1.40;;;6.70;99.90;;;;;;5031002;28;20191;-46
2023/03/27 08:19:25;;;;;;;5.65;1.50;;;;;;;;;;5030999;28;20168;-44
2023/03/27 08:21:51;;;;;;;3.95;1.63;;;6.80;99.90;;;;;;5031662;28;20305;-44
2023/03/27 08:24:17;;;;;;;1.90;1.42;;;6.80;99.90;;;;;;5031195;28;20627;-43
2023/03/27 08:26:43;;;;;;;3.72;1.65;;;;;;;;;;5031033;28;20638;-44
2023/03/27 08:29:09;;;;;;;3.60;1.80;;;;;;;;;;5031227;28;20180;-44
2023/03/27 08:31:34;;;;;;;5.07;2.00;;;7.00;99.90;;;;;;5029233;28;20175;-44
2023/03/27 08:34:00;;;;;;;6.25;1.90;;;6.80;99.90;;;;;;5032895;28;20242;-45
2023/03/27 08:36:26;;;;;;;2.15;1.40;;;6.90;99.90;;;;;;5050708;28;20254;-44
2023/03/27 08:38:54;;;;;;;6.88;1.38;;;;;;;;;;5036643;28;20649;-44
2023/03/27 08:41:37;;;;;;;4.90;1.33;;;6.80;99.90;;;;;;5031433;28;20270;-44
2023/03/27 08:44:05;;;;;;;2.97;1.02;;;;;;;;;;5031150;28;20570;-44
2023/03/27 08:46:36;;;;;;;4.53;1.70;;;6.40;99.90;;;;;;5031058;28;20179;-44
2023/03/27 08:49:15;;;;;;;4.35;1.58;;;6.30;99.90;;;;;;5030956;28;20225;-45
2023/03/27 08:51:47;;;;;;;6.70;1.50;;;6.70;99.90;;;;;;5030830;28;20190;-44
2023/03/27 08:54:21;;;;;;;4.22;1.60;;;7.20;99.90;;;;;;5030735;28;20246;-45
2023/03/27 08:56:47;;;;;;;3.88;1.30;;;6.90;99.90;;;;;;5030515;28;20206;-44
2023/03/27 08:59:23;;;;;;;7.45;1.85;;;6.80;99.90;;;;;;5030556;28;20167;-44
2023/03/27 09:02:07;;;;;;;9.52;1.92;;;7.10;99.90;;;;;;5031205;28;20385;-45
2023/03/27 09:04:43;;;;;;;3.22;1.60;;;6.90;99.90;;;;;;5030143;28;20186;-44
2023/03/27 09:07:11;;;;;;;6.97;1.65;;;;;;;;;;5030321;28;20167;-44
2023/03/27 09:09:58;;;;;;;4.85;1.88;;;7.10;99.90;;;;;;5030182;28;20292;-44
2023/03/27 09:12:39;;;;;;;7.97;2.20;;;7.40;99.90;;;;;;5029959;28;20179;-47
2023/03/27 09:15:12;;;;;;;7.20;2.17;;;7.70;99.90;;;;;;5030647;28;20179;-44
2023/03/27 09:17:48;;;;;;;7.03;2.10;;;7.60;99.90;;;;;;5030273;28;20254;-44
2023/03/27 09:20:16;;;;;;;6.53;1.85;;;;;;;;;;5030023;28;20171;-44
2023/03/27 09:22:52;;;;;;;5.10;1.45;;;7.70;99.90;;;;;;5029634;28;20658;-44
2023/03/27 09:25:28;;;;;;;4.82;1.58;;;8.00;99.90;;;;;;5030277;28;20217;-44
2023/03/27 09:27:55;;;;;;;5.53;1.92;;;8.10;99.90;;;;;;5029929;28;20182;-44
2023/03/27 09:30:25;;;;;;;5.05;1.65;;;8.20;99.90;;;;;;5030446;28;20207;-43
2023/03/27 09:32:55;;;;;;;9.75;2.13;;;8.40;99.90;;;;;;5030326;28;20254;-44
2023/03/27 09:35:21;;;;;;;7.43;2.03;;;8.50;99.90;;;;;;5030574;28;20171;-44
2023/03/27 09:37:57;;;;;;;6.50;1.45;;;8.60;99.90;;;;;;5028707;28;20197;-44
2023/03/27 09:41:01;;;;;;;6.78;2.22;;;8.10;99.90;;;;;;5029995;28;20217;-44
2023/03/27 09:43:57;;;;;;;6.00;1.60;;;7.80;99.90;;;;;;5029660;28;20233;-44
2023/03/27 09:46:25;;;;;;;4.13;1.50;;;7.70;99.90;;;;;;5027754;28;20329;-44
2023/03/27 09:49:00;;;;;;;4.30;1.35;;;7.60;99.90;;;;;;5029646;28;20164;-45
2023/03/27 09:51:50;;;;;;;10.07;2.08;;;7.70;99.90;;;;;;5029220;28;20215;-45
2023/03/27 09:54:20;;;;;;;5.88;1.70;;;8.00;99.90;;;;;;5029178;28;20218;-45
2023/03/27 09:56:46;;;;;;;8.27;2.05;;;;;;;;;;5029720;28;20164;-44
2023/03/27 09:59:36;;;;;;;6.32;2.05;;;8.40;99.90;;;;;;5029421;28;20649;-45
2023/03/27 10:02:24;;;;;;;3.88;1.40;;;8.30;99.90;;;;;;5029818;28;20225;-45
2023/03/27 10:05:18;;;;;;;7.22;1.60;;;8.50;99.90;;;;;;5030040;28;20163;-44
2023/03/27 10:07:44;;;;;;;9.75;1.67;;;;;;;;;;5029450;28;20203;-45
2023/03/27 10:10:19;;;;;;;6.68;1.77;;;8.10;99.90;;;;;;5028217;28;20207;-45
2023/03/27 10:12:52;;;;;;;9.90;2.13;;;7.80;99.90;;;;;;5029723;28;20174;-45
2023/03/27 10:15:37;;;;;;;4.82;1.45;;;7.80;99.90;;;;;;5031451;28;20163;-44
2023/03/27 10:18:26;;;;;;;5.43;1.83;;;8.20;99.90;;;;;;5033517;28;20423;-44
2023/03/27 10:20:58;;;;;;;12.57;2.35;;;8.60;99.90;;;;;;5033554;28;20179;-44
2023/03/27 10:23:25;;;;;;;6.35;1.48;;;8.30;99.90;;;;;;5032026;28;20179;-44
2023/03/27 10:25:52;;;;;;;5.18;1.73;;;8.30;99.90;;;;;;5033900;28;20186;-44
2023/03/27 10:28:20;;;;;;;3.55;1.70;;;8.00;99.90;;;;;;5033723;28;20163;-45
2023/03/27 10:30:58;;;;;;;3.28;1.23;;;7.90;99.90;;;;;;5013045;28;20227;-45
2023/03/27 10:33:36;;;;;;;6.60;2.03;;;7.90;99.90;;;;;;5013200;28;20234;-44
2023/03/27 10:36:03;;;;;;;3.80;1.35;;;;;;;;;;5013010;28;20167;-45
2023/03/27 10:38:32;;;;;;;6.22;1.85;;;7.80;99.90;;;;;;5012811;28;20172;-45
2023/03/27 10:40:59;;;;;;;3.95;1.40;;;7.70;99.90;;;;;;5012850;28;20168;-53
2023/03/27 10:43:32;;;;;;;2.05;1.40;;;7.80;99.90;;;;;;5013129;28;20227;-44
2023/03/27 10:46:07;;;;;;;4.78;1.63;;;8.40;99.90;;;;;;5013171;28;20223;-44
2023/03/27 10:48:56;;;;;;;13.60;2.05;;;8.90;99.90;;;;;;5012936;28;20161;-45
2023/03/27 10:51:50;;;;;;;4.63;1.45;;;8.60;99.90;;;;;;5024608;28;20229;-46
2023/03/27 10:54:33;;;;;;;5.88;1.60;;;8.60;99.90;;;;;;5032669;28;20164;-46
2023/03/27 10:57:04;;;;;;;5.30;1.50;;;9.20;99.90;;;;;;5032766;28;20182;-53
2023/03/27 10:59:40;;;;;;;5.72;1.67;;;8.70;99.90;;;;;;5032817;28;20874;-47
2023/03/27 11:02:30;;;;;;;2.78;1.30;;;8.30;99.90;;;;;;5032934;28;20183;-49
2023/03/27 11:05:03;;;;;;;3.08;1.20;;;8.20;99.90;;;;;;5032536;28;20171;-53
2023/03/27 11:07:32;;;;;;;3.45;1.23;;;8.20;99.90;;;;;;5032750;28;20178;-52
2023/03/27 11:10:25;;;;;;;5.05;1.15;;;8.40;99.90;;;;;;5032572;28;20650;-47
2023/03/27 11:13:00;;;;;;;4.53;1.15;;;8.40;99.90;;;;;;5032181;28;20179;-46
2023/03/27 11:15:35;;;;;;;2.95;1.15;;;8.70;99.90;;;;;;5032652;28;20177;-48
2023/03/27 11:18:09;;;;;;;6.68;1.33;;;9.30;99.90;;;;;;5032751;28;20167;-46
2023/03/27 11:20:42;;;;;;;7.43;1.63;;;;;;;;;;5031970;28;20182;-45
2023/03/27 11:23:14;;;;;;;5.47;1.73;;;9.60;99.90;;;;;;5032291;28;20186;-46
2023/03/27 11:25:51;;;;;;;2.95;1.30;;;9.30;99.90;;;;;;5030596;28;20195;-45
2023/03/27 11:28:20;;;;;;;7.35;1.65;;;9.10;99.90;;;;;;5032457;28;20646;-44
2023/03/27 11:30:51;;;;;;;3.08;1.38;;;8.80;99.90;;;;;;5032089;28;20207;-44
2023/03/27 11:33:24;;;;;;;2.47;0.80;;;8.70;99.90;;;;;;5032348;28;20167;-44
2023/03/27 11:36:19;;;;;;;1.73;0.93;;;8.40;99.90;;;;;;5032248;28;20194;-44
2023/03/27 11:39:03;;;;;;;2.38;0.98;;;8.70;99.90;;;;;;5031896;28;20167;-43
2023/03/27 11:41:29;;;;;;;1.67;0.90;;;9.30;99.90;;;;;;5031640;28;20281;-48
2023/03/27 11:43:55;;;;;;;2.45;1.08;;;;;;;;;;5031848;28;20215;-44
2023/03/27 11:46:48;;;;;;;1.67;0.88;;;9.30;99.90;;;;;;5030971;28;20185;-46
2023/03/27 11:49:41;;;;;;;9.18;1.60;;;9.70;99.90;;;;;;5020540;28;20244;-44
2023/03/27 11:52:36;;;;;;;3.47;0.95;;;9.10;99.90;;;;;;5014982;28;20194;-52
2023/03/27 11:55:23;;;;;;;1.10;0.75;;;8.40;99.90;;;;;;5031557;28;20171;-49
2023/03/27 11:58:17;;;;;;;1.70;0.70;;;7.90;99.90;;;;;;5031893;28;20163;-44
2023/03/27 12:01:00;;;;;;;4.80;1.17;;;7.80;99.90;;;;;;5031436;28;20197;-44
2023/03/27 12:03:52;;;;;;;1.63;1.02;;;7.80;99.90;;;;;;5031691;28;20180;-44
2023/03/27 12:06:23;;;;;;;0.52;0.52;;;7.50;99.90;;;;;;5030773;28;20179;-45
2023/03/27 12:09:05;;;;;;;1.00;0.73;;;7.30;99.90;;;;;;5031687;28;20211;-44
2023/03/27 12:11:41;;;;;;;5.22;1.10;;;7.30;99.90;;;;;;5030660;28;20210;-47
2023/03/27 12:14:41;;;;;;;6.15;1.00;;;7.20;99.90;;;;;;5031091;28;20186;-45
2023/03/27 12:17:53;;;;;;;4.97;1.90;;;7.30;99.90;;;;;;5031334;28;20337;-46
2023/03/27 12:20:44;;;;;;;3.63;1.83;;;7.60;99.90;;;;;;5026255;28;20294;-44
2023/03/27 12:23:10;;;;;;;2.38;1.45;;;;;;;;;;5030701;28;20302;-48
2023/03/27 12:26:05;;;;;;;3.28;2.03;;;8.20;99.90;;;;;;5028766;28;20509;-44
2023/03/27 12:28:51;;;;;;;2.10;1.35;;;8.00;99.90;;;;;;5031096;28;20258;-44
2023/03/27 12:31:48;;;;;;;5.15;2.50;;;7.60;99.90;;;;;;5030957;28;20195;-49
2023/03/27 12:34:36;;;;;;;1.75;0.88;;;7.20;99.90;;;;;;5030729;28;20178;-53
2023/03/27 12:37:03;;;;;;;1.55;1.05;;;;;;;;;;5030618;28;20246;-49
2023/03/27 12:39:29;;;;;;;0.77;0.73;;;;;;;;;;5030493;28;20574;-52
2023/03/27 12:41:55;;;;;;;1.85;0.80;;;7.00;99.90;;;;;;5030501;28;20186;-50
2023/03/27 12:44:31;;;;;;;5.55;1.25;;;7.30;99.90;;;;;;5030467;28;20179;-44
2023/03/27 12:47:24;;;;;;;3.17;1.27;;;7.50;99.90;;;;;;5030747;28;20167;-52
2023/03/27 12:49:58;;;;;;;3.42;2.20;;;8.10;99.90;;;;;;5030707;28;20219;-53
2023/03/27 12:52:25;;;;;;;5.88;1.98;;;8.30;99.90;;;;;;5030416;28;20214;-52
2023/03/27 12:55:12;;;;;;;5.28;2.00;;;8.40;99.90;;;;;;5030492;28;20167;-45
2023/03/27 12:57:45;;;;;;;3.35;1.80;;;8.40;99.90;;;;;;5030292;28;20182;-53
2023/03/27 13:00:24;;;;;;;2.53;1.42;;;8.50;99.90;;;;;;5030319;28;20530;-48
2023/03/27 13:03:18;;;;;;;3.75;0.75;;;8.20;99.90;;;;;;5030906;28;20171;-53
2023/03/27 13:05:56;;;;;;;5.43;1.40;;;8.00;99.90;;;;;;5030386;28;20199;-53
2023/03/27 13:08:39;;;;;;;6.13;1.88;;;7.60;99.90;;;;;;5030106;28;20571;-52
2023/03/27 13:11:34;;;;;;;1.33;0.68;;;7.20;99.90;;;;;;5029730;28;20207;-53
2023/03/27 13:14:24;;;;;;;2.45;1.42;;;7.10;99.90;;;;;;5029915;28;20627;-52
2023/03/27 13:16:59;;;;;;;6.18;1.77;;;7.00;99.90;;;;;;5030675;28;20222;-53
2023/03/27 13:19:46;;;;;;;2.47;1.23;;;6.80;99.90;;;;;;5030161;28;20175;-52
2023/03/27 13:22:17;;;;;;;1.98;1.60;;;7.30;99.90;;;;;;5029947;28;20214;-53
2023/03/27 13:24:58;;;;;;;6.28;3.40;;;7.70;99.90;;;;;;5030047;28;20647;-52
2023/03/27 13:27:58;;;;;;;8.25;4.57;;;8.30;99.90;;;;;;5029862;28;20185;-50
2023/03/27 13:30:45;;;;;;;6.47;2.90;;;8.30;99.90;;;;;;5029815;28;20203;-53
2023/03/27 13:33:23;;;;;;;7.35;3.58;;;8.70;99.90;;;;;;5029579;28;20171;-46
2023/03/27 13:35:57;;;;;;;4.32;2.13;;;9.00;99.90;;;;;;5030322;28;20171;-52
2023/03/27 13:38:44;;;;;;;4.43;2.30;;;8.60;99.90;;;;;;5029687;28;20178;-44